sensor_id;sensor_type;location;lat;lon;timestamp;pressure;altitude;pressure_sealevel;temperature;humidity
18813;BME280;9534;51.140;6.296;2023-05-20T00:00:47;101180.78;;;12.03;100.00
18813;BME280;9534;51.140;6.296;2023-05-20T00:04:50;101174.06;;;12.06;100.00
18813;BME280;9534;51.140;6.296;2023-05-20T00:08:55;101174.47;;;11.96;100.00
18813;BME280;9534;51.140;6.296;2023-05-20T00:13:02;101190.91;;;11.96;100.00
18813;BME280;9534;51.140;6.296;2023-05-20T00:17:07;101172.34;;;12.05;100.00
18813;BME280;9534;51.140;6.296;2023-05-20T00:21:11;101189.22;;;11.95;100.00
18813;BME280;9534;51.140;6.296;2023-05-20T00:25:15;101191.28;;;11.87;100.00
18813;BME280;9534;51.140;6.296;2023-05-20T00:29:19;101195.13;;;11.92;100.00
18813;BME280;9534;51.140;6.296;2023-05-20T00:33:23;101190.44;;;11.86;100.00
18813;BME280;9534;51.140;6.296;2023-05-20T00:37:26;101194.66;;;11.89;100.00
18813;BME280;9534;51.140;6.296;2023-05-20T00:41:31;101191.47;;;11.79;100.00
18813;BME280;9534;51.140;6.296;2023-05-20T00:45:35;101183.16;;;11.66;100.00
18813;BME280;9534;51.140;6.296;2023-05-20T00:49:39;101191.09;;;11.54;100.00
18813;BME280;9534;51.140;6.296;2023-05-20T00:53:43;101179.63;;;11.38;100.00
18813;BME280;9534;51.140;6.296;2023-05-20T00:57:47;101181.66;;;11.23;100.00
18813;BME280;9534;51.140;6.296;2023-05-20T01:01:51;101182.81;;;11.08;100.00
18813;BME280;9534;51.140;6.296;2023-05-20T01:05:54;101178.16;;;11.02;100.00
18813;BME280;9534;51.140;6.296;2023-05-20T01:09:57;101173.97;;;11.06;100.00
18813;BME280;9534;51.140;6.296;2023-05-20T01:14:05;101175.16;;;10.97;100.00
18813;BME280;9534;51.140;6.296;2023-05-20T01:18:09;101173.75;;;10.80;100.00
18813;BME280;9534;51.140;6.296;2023-05-20T01:22:14;101180.66;;;10.76;100.00
18813;BME280;9534;51.140;6.296;2023-05-20T01:26:19;101171.66;;;10.82;100.00
18813;BME280;9534;51.140;6.296;2023-05-20T01:30:28;101173.47;;;10.96;100.00
18813;BME280;9534;51.140;6.296;2023-05-20T01:34:32;101177.50;;;11.00;100.00
18813;BME280;9534;51.140;6.296;2023-05-20T01:38:39;101175.94;;;10.91;100.00
18813;BME280;9534;51.140;6.296;2023-05-20T01:42:45;101161.25;;;10.98;100.00
18813;BME280;9534;51.140;6.296;2023-05-20T01:46:54;101164.78;;;10.92;100.00
18813;BME280;9534;51.140;6.296;2023-05-20T01:50:59;101161.47;;;10.97;100.00
18813;BME280;9534;51.140;6.296;2023-05-20T01:55:02;101154.88;;;10.91;100.00
18813;BME280;9534;51.140;6.296;2023-05-20T01:59:07;101159.53;;;10.91;100.00
18813;BME280;9534;51.140;6.296;2023-05-20T02:03:11;101153.16;;;10.84;100.00
18813;BME280;9534;51.140;6.296;2023-05-20T02:07:14;101152.66;;;10.74;100.00
18813;BME280;9534;51.140;6.296;2023-05-20T02:11:17;101162.41;;;10.83;100.00
18813;BME280;9534;51.140;6.296;2023-05-20T02:15:22;101158.91;;;10.68;100.00
18813;BME280;9534;51.140;6.296;2023-05-20T02:19:25;101164.50;;;10.81;100.00
18813;BME280;9534;51.140;6.296;2023-05-20T02:23:30;101159.84;;;10.81;100.00
18813;BME280;9534;51.140;6.296;2023-05-20T02:27:34;101150.81;;;10.81;100.00
18813;BME280;9534;51.140;6.296;2023-05-20T02:31:39;101151.84;;;10.80;100.00
18813;BME280;9534;51.140;6.296;2023-05-20T02:35:42;101146.66;;;10.64;100.00
18813;BME280;9534;51.140;6.296;2023-05-20T02:39:45;101144.19;;;10.69;100.00
18813;BME280;9534;51.140;6.296;2023-05-20T02:43:49;101138.72;;;10.69;100.00
18813;BME280;9534;51.140;6.296;2023-05-20T02:47:54;101143.53;;;10.67;100.00
18813;BME280;9534;51.140;6.296;2023-05-20T02:51:57;101139.41;;;10.77;100.00
18813;BME280;9534;51.140;6.296;2023-05-20T02:56:00;101135.19;;;10.75;100.00
18813;BME280;9534;51.140;6.296;2023-05-20T03:00:05;101133.72;;;10.79;100.00
18813;BME280;9534;51.140;6.296;2023-05-20T03:04:13;101143.00;;;10.78;100.00
18813;BME280;9534;51.140;6.296;2023-05-20T03:08:17;101134.53;;;10.73;100.00
18813;BME280;9534;51.140;6.296;2023-05-20T03:12:20;101127.75;;;10.69;100.00
18813;BME280;9534;51.140;6.296;2023-05-20T03:16:23;101130.50;;;10.69;100.00
18813;BME280;9534;51.140;6.296;2023-05-20T03:20:30;101126.84;;;10.62;100.00
18813;BME280;9534;51.140;6.296;2023-05-20T03:24:34;101129.75;;;10.54;100.00
18813;BME280;9534;51.140;6.296;2023-05-20T03:28:38;101134.81;;;10.57;100.00
18813;BME280;9534;51.140;6.296;2023-05-20T03:32:42;101129.81;;;10.60;100.00
18813;BME280;9534;51.140;6.296;2023-05-20T03:36:47;101127.13;;;10.67;100.00
18813;BME280;9534;51.140;6.296;2023-05-20T03:40:50;101128.16;;;10.66;100.00
18813;BME280;9534;51.140;6.296;2023-05-20T03:44:53;101125.38;;;10.59;100.00
18813;BME280;9534;51.140;6.296;2023-05-20T03:48:59;101111.09;;;10.64;100.00
18813;BME280;9534;51.140;6.296;2023-05-20T03:53:06;101117.34;;;10.58;100.00
18813;BME280;9534;51.140;6.296;2023-05-20T03:57:13;101121.00;;;10.65;100.00
18813;BME280;9534;51.140;6.296;2023-05-20T04:01:17;101132.44;;;10.75;100.00
18813;BME280;9534;51.140;6.296;2023-05-20T04:05:20;101128.84;;;10.74;100.00
18813;BME280;9534;51.140;6.296;2023-05-20T04:09:24;101129.88;;;10.73;100.00
18813;BME280;9534;51.140;6.296;2023-05-20T04:13:28;101133.28;;;10.75;100.00
18813;BME280;9534;51.140;6.296;2023-05-20T04:17:32;101123.19;;;10.76;100.00
18813;BME280;9534;51.140;6.296;2023-05-20T04:21:41;101121.75;;;10.80;100.00
18813;BME280;9534;51.140;6.296;2023-05-20T04:25:46;101128.50;;;10.84;100.00
18813;BME280;9534;51.140;6.296;2023-05-20T04:29:49;101121.59;;;10.88;100.00
18813;BME280;9534;51.140;6.296;2023-05-20T04:33:54;101123.69;;;10.86;100.00
18813;BME280;9534;51.140;6.296;2023-05-20T04:37:57;101119.94;;;10.93;100.00
18813;BME280;9534;51.140;6.296;2023-05-20T04:42:03;101127.97;;;11.01;100.00
18813;BME280;9534;51.140;6.296;2023-05-20T04:46:06;101124.66;;;11.06;100.00
18813;BME280;9534;51.140;6.296;2023-05-20T04:50:11;101126.78;;;11.10;100.00
18813;BME280;9534;51.140;6.296;2023-05-20T04:54:15;101120.50;;;11.16;100.00
18813;BME280;9534;51.140;6.296;2023-05-20T04:58:21;101120.91;;;11.19;100.00
18813;BME280;9534;51.140;6.296;2023-05-20T05:02:25;101116.31;;;11.26;100.00
18813;BME280;9534;51.140;6.296;2023-05-20T05:06:28;101110.03;;;11.32;100.00
18813;BME280;9534;51.140;6.296;2023-05-20T05:10:33;101114.28;;;11.41;100.00
18813;BME280;9534;51.140;6.296;2023-05-20T05:14:39;101105.25;;;11.47;100.00
18813;BME280;9534;51.140;6.296;2023-05-20T05:18:42;101112.44;;;11.48;100.00
18813;BME280;9534;51.140;6.296;2023-05-20T05:22:46;101104.25;;;11.61;100.00
18813;BME280;9534;51.140;6.296;2023-05-20T05:26:52;101107.09;;;11.74;100.00
18813;BME280;9534;51.140;6.296;2023-05-20T05:30:56;101105.22;;;11.81;100.00
18813;BME280;9534;51.140;6.296;2023-05-20T05:35:00;101106.72;;;11.97;100.00
18813;BME280;9534;51.140;6.296;2023-05-20T05:39:04;101110.34;;;12.17;100.00
18813;BME280;9534;51.140;6.296;2023-05-20T05:43:07;101108.88;;;12.27;100.00
18813;BME280;9534;51.140;6.296;2023-05-20T05:47:12;101104.88;;;12.36;100.00
18813;BME280;9534;51.140;6.296;2023-05-20T05:51:15;101094.94;;;12.48;100.00
18813;BME280;9534;51.140;6.296;2023-05-20T05:55:20;101096.00;;;12.73;100.00
18813;BME280;9534;51.140;6.296;2023-05-20T05:59:24;101098.09;;;12.84;100.00
18813;BME280;9534;51.140;6.296;2023-05-20T06:03:29;101090.88;;;12.96;100.00
18813;BME280;9534;51.140;6.296;2023-05-20T06:07:33;101096.41;;;13.02;100.00
18813;BME280;9534;51.140;6.296;2023-05-20T06:11:36;101106.03;;;13.31;100.00
18813;BME280;9534;51.140;6.296;2023-05-20T06:15:39;101100.94;;;13.41;100.00
18813;BME280;9534;51.140;6.296;2023-05-20T06:19:44;101097.94;;;13.49;100.00
18813;BME280;9534;51.140;6.296;2023-05-20T06:23:48;101095.31;;;13.66;100.00
18813;BME280;9534;51.140;6.296;2023-05-20T06:27:52;101085.06;;;13.80;100.00
18813;BME280;9534;51.140;6.296;2023-05-20T06:31:58;101085.03;;;13.86;100.00
18813;BME280;9534;51.140;6.296;2023-05-20T06:36:03;101077.56;;;13.93;100.00
18813;BME280;9534;51.140;6.296;2023-05-20T06:40:07;101077.16;;;14.27;100.00
18813;BME280;9534;51.140;6.296;2023-05-20T06:44:11;101078.88;;;14.53;100.00
18813;BME280;9534;51.140;6.296;2023-05-20T06:48:40;101069.50;;;14.78;100.00
18813;BME280;9534;51.140;6.296;2023-05-20T06:52:44;101067.69;;;14.90;100.00
18813;BME280;9534;51.140;6.296;2023-05-20T06:56:48;101066.19;;;15.12;100.00
18813;BME280;9534;51.140;6.296;2023-05-20T07:00:54;101059.91;;;15.23;100.00
18813;BME280;9534;51.140;6.296;2023-05-20T07:04:59;101055.16;;;15.12;100.00
18813;BME280;9534;51.140;6.296;2023-05-20T07:09:05;101049.63;;;15.48;100.00
18813;BME280;9534;51.140;6.296;2023-05-20T07:13:08;101048.88;;;15.41;100.00
18813;BME280;9534;51.140;6.296;2023-05-20T07:17:14;101048.25;;;15.57;100.00
18813;BME280;9534;51.140;6.296;2023-05-20T07:21:20;101049.03;;;15.46;100.00
18813;BME280;9534;51.140;6.296;2023-05-20T07:25:45;101047.53;;;15.79;100.00
18813;BME280;9534;51.140;6.296;2023-05-20T07:29:48;101050.03;;;15.81;100.00
18813;BME280;9534;51.140;6.296;2023-05-20T07:33:51;101038.34;;;15.97;100.00
18813;BME280;9534;51.140;6.296;2023-05-20T07:37:55;101050.31;;;15.91;100.00
18813;BME280;9534;51.140;6.296;2023-05-20T07:41:59;101042.00;;;16.31;100.00
18813;BME280;9534;51.140;6.296;2023-05-20T07:46:04;101053.75;;;16.15;100.00
18813;BME280;9534;51.140;6.296;2023-05-20T07:50:07;101055.91;;;16.13;100.00
18813;BME280;9534;51.140;6.296;2023-05-20T07:54:11;101052.88;;;16.44;100.00
18813;BME280;9534;51.140;6.296;2023-05-20T07:58:20;101045.63;;;16.20;100.00
18813;BME280;9534;51.140;6.296;2023-05-20T08:02:25;101041.72;;;16.51;100.00
18813;BME280;9534;51.140;6.296;2023-05-20T08:06:28;101036.47;;;16.31;100.00
18813;BME280;9534;51.140;6.296;2023-05-20T08:10:33;101027.97;;;16.33;100.00
18813;BME280;9534;51.140;6.296;2023-05-20T08:14:38;101035.25;;;16.57;100.00
18813;BME280;9534;51.140;6.296;2023-05-20T08:18:42;101021.75;;;16.72;100.00
18813;BME280;9534;51.140;6.296;2023-05-20T08:22:46;101018.50;;;17.09;100.00
18813;BME280;9534;51.140;6.296;2023-05-20T08:26:51;101020.06;;;17.05;100.00
18813;BME280;9534;51.140;6.296;2023-05-20T08:30:59;101027.09;;;17.24;100.00
18813;BME280;9534;51.140;6.296;2023-05-20T08:35:05;101029.81;;;16.96;100.00
18813;BME280;9534;51.140;6.296;2023-05-20T08:39:09;101011.03;;;17.60;100.00
18813;BME280;9534;51.140;6.296;2023-05-20T08:43:14;101010.81;;;18.06;100.00
18813;BME280;9534;51.140;6.296;2023-05-20T08:47:21;101024.25;;;17.70;100.00
18813;BME280;9534;51.140;6.296;2023-05-20T08:51:25;101022.63;;;18.02;100.00
18813;BME280;9534;51.140;6.296;2023-05-20T08:55:29;101018.72;;;18.31;100.00
18813;BME280;9534;51.140;6.296;2023-05-20T08:59:37;101017.03;;;18.13;100.00
18813;BME280;9534;51.140;6.296;2023-05-20T09:03:44;101027.16;;;18.36;100.00
18813;BME280;9534;51.140;6.296;2023-05-20T09:07:47;101031.25;;;18.66;100.00
18813;BME280;9534;51.140;6.296;2023-05-20T09:11:50;101031.69;;;18.74;100.00
18813;BME280;9534;51.140;6.296;2023-05-20T09:15:56;101017.84;;;17.97;100.00
18813;BME280;9534;51.140;6.296;2023-05-20T09:20:00;101017.81;;;17.81;100.00
18813;BME280;9534;51.140;6.296;2023-05-20T09:24:05;101017.47;;;18.71;100.00
18813;BME280;9534;51.140;6.296;2023-05-20T09:28:09;101024.81;;;18.61;100.00
18813;BME280;9534;51.140;6.296;2023-05-20T09:32:13;101016.53;;;18.33;100.00
18813;BME280;9534;51.140;6.296;2023-05-20T09:36:18;101017.28;;;19.15;100.00
18813;BME280;9534;51.140;6.296;2023-05-20T09:40:23;101013.72;;;19.36;100.00
18813;BME280;9534;51.140;6.296;2023-05-20T09:44:29;101020.00;;;19.10;100.00
18813;BME280;9534;51.140;6.296;2023-05-20T09:48:34;101020.19;;;19.63;100.00
18813;BME280;9534;51.140;6.296;2023-05-20T09:52:40;101009.22;;;19.30;100.00
18813;BME280;9534;51.140;6.296;2023-05-20T09:56:44;101016.19;;;20.07;100.00
18813;BME280;9534;51.140;6.296;2023-05-20T10:00:49;101008.81;;;19.91;100.00
18813;BME280;9534;51.140;6.296;2023-05-20T10:04:53;101008.63;;;19.50;100.00
18813;BME280;9534;51.140;6.296;2023-05-20T10:09:04;101004.81;;;18.59;100.00
18813;BME280;9534;51.140;6.296;2023-05-20T10:13:17;101009.75;;;19.11;100.00
18813;BME280;9534;51.140;6.296;2023-05-20T10:17:25;101004.06;;;19.01;100.00
18813;BME280;9534;51.140;6.296;2023-05-20T10:21:31;100999.84;;;20.10;100.00
18813;BME280;9534;51.140;6.296;2023-05-20T10:25:35;101005.09;;;20.07;100.00
18813;BME280;9534;51.140;6.296;2023-05-20T10:29:43;100998.06;;;20.26;100.00
18813;BME280;9534;51.140;6.296;2023-05-20T10:33:47;100993.88;;;20.23;100.00
18813;BME280;9534;51.140;6.296;2023-05-20T10:37:52;100979.34;;;19.64;100.00
18813;BME280;9534;51.140;6.296;2023-05-20T10:42:06;100988.84;;;20.20;100.00
18813;BME280;9534;51.140;6.296;2023-05-20T10:46:16;100986.03;;;20.52;100.00
18813;BME280;9534;51.140;6.296;2023-05-20T10:50:34;100984.09;;;20.52;100.00
18813;BME280;9534;51.140;6.296;2023-05-20T10:54:41;100988.56;;;20.53;100.00
18813;BME280;9534;51.140;6.296;2023-05-20T10:58:47;100993.59;;;20.93;100.00
18813;BME280;9534;51.140;6.296;2023-05-20T11:02:50;100984.03;;;20.84;100.00
18813;BME280;9534;51.140;6.296;2023-05-20T11:06:55;100991.59;;;20.47;100.00
18813;BME280;9534;51.140;6.296;2023-05-20T11:11:00;100986.44;;;20.29;100.00
18813;BME280;9534;51.140;6.296;2023-05-20T11:15:09;100986.63;;;19.96;100.00
18813;BME280;9534;51.140;6.296;2023-05-20T11:19:14;100975.59;;;20.32;100.00
18813;BME280;9534;51.140;6.296;2023-05-20T11:23:20;100970.44;;;21.33;100.00
18813;BME280;9534;51.140;6.296;2023-05-20T11:27:25;100965.28;;;21.06;100.00
18813;BME280;9534;51.140;6.296;2023-05-20T11:31:31;100965.69;;;20.10;100.00
18813;BME280;9534;51.140;6.296;2023-05-20T11:35:34;100956.00;;;21.56;100.00
18813;BME280;9534;51.140;6.296;2023-05-20T11:39:37;100960.47;;;20.50;100.00
18813;BME280;9534;51.140;6.296;2023-05-20T11:43:41;100958.84;;;19.96;100.00
18813;BME280;9534;51.140;6.296;2023-05-20T11:47:47;100953.22;;;20.49;100.00
18813;BME280;9534;51.140;6.296;2023-05-20T11:52:01;100936.13;;;20.72;100.00
18813;BME280;9534;51.140;6.296;2023-05-20T11:56:05;100939.81;;;21.43;100.00
18813;BME280;9534;51.140;6.296;2023-05-20T12:00:09;100945.25;;;21.90;100.00
18813;BME280;9534;51.140;6.296;2023-05-20T12:04:19;100942.72;;;20.61;100.00
18813;BME280;9534;51.140;6.296;2023-05-20T12:08:23;100944.63;;;21.63;100.00
18813;BME280;9534;51.140;6.296;2023-05-20T12:12:26;100941.25;;;20.12;100.00
18813;BME280;9534;51.140;6.296;2023-05-20T12:16:30;100934.00;;;20.89;100.00
18813;BME280;9534;51.140;6.296;2023-05-20T12:20:36;100927.09;;;20.55;100.00
18813;BME280;9534;51.140;6.296;2023-05-20T12:24:40;100937.56;;;21.30;100.00
18813;BME280;9534;51.140;6.296;2023-05-20T12:28:43;100934.69;;;21.11;100.00
18813;BME280;9534;51.140;6.296;2023-05-20T12:32:47;100948.47;;;21.42;100.00
18813;BME280;9534;51.140;6.296;2023-05-20T12:36:54;100938.31;;;22.47;100.00
18813;BME280;9534;51.140;6.296;2023-05-20T12:41:00;100935.84;;;23.34;100.00
18813;BME280;9534;51.140;6.296;2023-05-20T12:45:05;100933.59;;;22.52;100.00
18813;BME280;9534;51.140;6.296;2023-05-20T12:49:10;100920.44;;;21.83;100.00
18813;BME280;9534;51.140;6.296;2023-05-20T12:53:14;100923.03;;;21.14;100.00
18813;BME280;9534;51.140;6.296;2023-05-20T12:57:18;100914.75;;;21.48;100.00
18813;BME280;9534;51.140;6.296;2023-05-20T13:01:21;100929.19;;;19.75;100.00
18813;BME280;9534;51.140;6.296;2023-05-20T13:05:24;100925.38;;;20.85;100.00
18813;BME280;9534;51.140;6.296;2023-05-20T13:09:29;100911.44;;;21.51;100.00
18813;BME280;9534;51.140;6.296;2023-05-20T13:13:33;100912.56;;;20.84;100.00
18813;BME280;9534;51.140;6.296;2023-05-20T13:17:38;100910.75;;;21.10;100.00
18813;BME280;9534;51.140;6.296;2023-05-20T13:21:41;100905.13;;;22.16;100.00
18813;BME280;9534;51.140;6.296;2023-05-20T13:25:45;100907.47;;;21.22;100.00
18813;BME280;9534;51.140;6.296;2023-05-20T13:29:48;100900.28;;;21.46;100.00
18813;BME280;9534;51.140;6.296;2023-05-20T13:33:51;100892.31;;;20.94;100.00
18813;BME280;9534;51.140;6.296;2023-05-20T13:37:57;100884.44;;;20.81;100.00
18813;BME280;9534;51.140;6.296;2023-05-20T13:42:03;100869.66;;;21.61;100.00
18813;BME280;9534;51.140;6.296;2023-05-20T13:46:07;100878.09;;;22.16;100.00
18813;BME280;9534;51.140;6.296;2023-05-20T13:50:11;100874.56;;;21.10;100.00
18813;BME280;9534;51.140;6.296;2023-05-20T13:54:15;100872.41;;;21.26;100.00
18813;BME280;9534;51.140;6.296;2023-05-20T13:58:20;100854.59;;;21.47;100.00
18813;BME280;9534;51.140;6.296;2023-05-20T14:02:23;100852.34;;;21.24;100.00
18813;BME280;9534;51.140;6.296;2023-05-20T14:06:27;100847.03;;;21.23;100.00
18813;BME280;9534;51.140;6.296;2023-05-20T14:10:32;100843.69;;;20.60;100.00
18813;BME280;9534;51.140;6.296;2023-05-20T14:14:38;100843.16;;;20.63;100.00
18813;BME280;9534;51.140;6.296;2023-05-20T14:18:42;100832.03;;;20.63;100.00
18813;BME280;9534;51.140;6.296;2023-05-20T14:22:47;100827.78;;;20.04;100.00
18813;BME280;9534;51.140;6.296;2023-05-20T14:26:50;100827.38;;;20.22;100.00
18813;BME280;9534;51.140;6.296;2023-05-20T14:30:55;100817.50;;;20.46;100.00
18813;BME280;9534;51.140;6.296;2023-05-20T14:34:58;100820.63;;;20.59;100.00
18813;BME280;9534;51.140;6.296;2023-05-20T14:39:02;100812.16;;;19.98;100.00
18813;BME280;9534;51.140;6.296;2023-05-20T14:43:05;100797.53;;;20.59;100.00
18813;BME280;9534;51.140;6.296;2023-05-20T14:47:09;100799.53;;;20.17;100.00
18813;BME280;9534;51.140;6.296;2023-05-20T14:51:12;100794.19;;;20.57;100.00
18813;BME280;9534;51.140;6.296;2023-05-20T14:55:15;100804.16;;;20.01;100.00
18813;BME280;9534;51.140;6.296;2023-05-20T14:59:18;100798.41;;;20.13;100.00
18813;BME280;9534;51.140;6.296;2023-05-20T15:03:23;100814.94;;;19.98;100.00
18813;BME280;9534;51.140;6.296;2023-05-20T15:07:28;100806.25;;;19.85;100.00
18813;BME280;9534;51.140;6.296;2023-05-20T15:11:32;100812.03;;;19.47;100.00
18813;BME280;9534;51.140;6.296;2023-05-20T15:15:36;100811.41;;;19.71;100.00
18813;BME280;9534;51.140;6.296;2023-05-20T15:19:42;100802.47;;;20.00;100.00
18813;BME280;9534;51.140;6.296;2023-05-20T15:23:46;100803.75;;;19.88;100.00
18813;BME280;9534;51.140;6.296;2023-05-20T15:27:50;100802.47;;;20.00;100.00
18813;BME280;9534;51.140;6.296;2023-05-20T15:31:54;100814.09;;;19.92;100.00
18813;BME280;9534;51.140;6.296;2023-05-20T15:35:59;100797.47;;;19.66;100.00
18813;BME280;9534;51.140;6.296;2023-05-20T15:40:04;100802.56;;;19.79;100.00
18813;BME280;9534;51.140;6.296;2023-05-20T15:44:08;100800.31;;;19.76;100.00
18813;BME280;9534;51.140;6.296;2023-05-20T15:48:11;100792.88;;;19.82;100.00
18813;BME280;9534;51.140;6.296;2023-05-20T15:52:16;100801.44;;;19.75;100.00
18813;BME280;9534;51.140;6.296;2023-05-20T15:56:20;100790.03;;;19.72;100.00
18813;BME280;9534;51.140;6.296;2023-05-20T16:00:25;100794.06;;;19.54;100.00
18813;BME280;9534;51.140;6.296;2023-05-20T16:04:30;100779.91;;;19.92;100.00
18813;BME280;9534;51.140;6.296;2023-05-20T16:08:35;100784.16;;;19.68;100.00
18813;BME280;9534;51.140;6.296;2023-05-20T16:12:39;100791.25;;;19.49;100.00
18813;BME280;9534;51.140;6.296;2023-05-20T16:16:43;100789.44;;;19.33;100.00
18813;BME280;9534;51.140;6.296;2023-05-20T16:20:46;100785.88;;;19.16;100.00
18813;BME280;9534;51.140;6.296;2023-05-20T16:24:51;100789.44;;;19.33;100.00
18813;BME280;9534;51.140;6.296;2023-05-20T16:28:55;100788.00;;;19.31;100.00
18813;BME280;9534;51.140;6.296;2023-05-20T16:33:00;100782.97;;;19.01;100.00
18813;BME280;9534;51.140;6.296;2023-05-20T16:37:04;100778.66;;;19.15;100.00
18813;BME280;9534;51.140;6.296;2023-05-20T16:41:08;100783.06;;;19.11;100.00
18813;BME280;9534;51.140;6.296;2023-05-20T16:45:11;100785.78;;;19.06;100.00
18813;BME280;9534;51.140;6.296;2023-05-20T16:49:14;100793.22;;;19.01;100.00
18813;BME280;9534;51.140;6.296;2023-05-20T16:53:18;100792.84;;;18.92;100.00
18813;BME280;9534;51.140;6.296;2023-05-20T16:57:24;100800.00;;;18.88;100.00
18813;BME280;9534;51.140;6.296;2023-05-20T17:01:28;100804.91;;;18.81;100.00
18813;BME280;9534;51.140;6.296;2023-05-20T17:05:33;100809.34;;;18.82;100.00
18813;BME280;9534;51.140;6.296;2023-05-20T17:09:37;100816.81;;;18.56;100.00
18813;BME280;9534;51.140;6.296;2023-05-20T17:13:43;100813.91;;;18.46;100.00
18813;BME280;9534;51.140;6.296;2023-05-20T17:17:48;100817.25;;;18.48;100.00
18813;BME280;9534;51.140;6.296;2023-05-20T17:21:51;100821.06;;;18.42;100.00
18813;BME280;9534;51.140;6.296;2023-05-20T17:25:55;100822.22;;;18.46;100.00
18813;BME280;9534;51.140;6.296;2023-05-20T17:30:02;100811.84;;;18.36;100.00
18813;BME280;9534;51.140;6.296;2023-05-20T17:34:07;100818.69;;;18.34;100.00
18813;BME280;9534;51.140;6.296;2023-05-20T17:38:12;100811.31;;;18.23;100.00
18813;BME280;9534;51.140;6.296;2023-05-20T17:42:17;100806.66;;;18.23;100.00
18813;BME280;9534;51.140;6.296;2023-05-20T17:46:22;100798.91;;;18.25;100.00
18813;BME280;9534;51.140;6.296;2023-05-20T17:50:26;100788.50;;;18.16;100.00
18813;BME280;9534;51.140;6.296;2023-05-20T17:54:29;100802.22;;;18.06;100.00
18813;BME280;9534;51.140;6.296;2023-05-20T17:58:33;100796.75;;;18.11;100.00
18813;BME280;9534;51.140;6.296;2023-05-20T18:02:39;100803.19;;;17.95;100.00
18813;BME280;9534;51.140;6.296;2023-05-20T18:06:48;100804.31;;;17.99;100.00
18813;BME280;9534;51.140;6.296;2023-05-20T18:10:52;100813.41;;;17.94;100.00
18813;BME280;9534;51.140;6.296;2023-05-20T18:14:56;100819.06;;;17.83;100.00
18813;BME280;9534;51.140;6.296;2023-05-20T18:19:02;100813.44;;;17.78;100.00
18813;BME280;9534;51.140;6.296;2023-05-20T18:23:06;100812.34;;;17.79;100.00
18813;BME280;9534;51.140;6.296;2023-05-20T18:27:09;100816.69;;;17.75;100.00
18813;BME280;9534;51.140;6.296;2023-05-20T18:31:13;100816.94;;;17.73;100.00
18813;BME280;9534;51.140;6.296;2023-05-20T18:35:17;100813.50;;;17.66;100.00
18813;BME280;9534;51.140;6.296;2023-05-20T18:39:21;100821.47;;;17.63;100.00
18813;BME280;9534;51.140;6.296;2023-05-20T18:43:25;100828.53;;;17.54;100.00
18813;BME280;9534;51.140;6.296;2023-05-20T18:47:30;100829.03;;;17.51;100.00
18813;BME280;9534;51.140;6.296;2023-05-20T18:51:35;100835.22;;;17.58;100.00
18813;BME280;9534;51.140;6.296;2023-05-20T18:55:40;100832.66;;;17.51;100.00
18813;BME280;9534;51.140;6.296;2023-05-20T18:59:45;100828.81;;;17.41;100.00
18813;BME280;9534;51.140;6.296;2023-05-20T19:03:50;100825.44;;;17.39;100.00
18813;BME280;9534;51.140;6.296;2023-05-20T19:07:56;100826.53;;;17.38;100.00
18813;BME280;9534;51.140;6.296;2023-05-20T19:12:01;100824.69;;;17.27;100.00
18813;BME280;9534;51.140;6.296;2023-05-20T19:16:05;100829.28;;;17.22;100.00
18813;BME280;9534;51.140;6.296;2023-05-20T19:20:09;100824.25;;;17.19;100.00
18813;BME280;9534;51.140;6.296;2023-05-20T19:24:14;100825.25;;;17.13;100.00
18813;BME280;9534;51.140;6.296;2023-05-20T19:28:19;100829.09;;;17.12;100.00
18813;BME280;9534;51.140;6.296;2023-05-20T19:32:24;100824.31;;;17.07;100.00
18813;BME280;9534;51.140;6.296;2023-05-20T19:36:27;100820.88;;;17.00;100.00
18813;BME280;9534;51.140;6.296;2023-05-20T19:40:33;100824.94;;;16.98;100.00
18813;BME280;9534;51.140;6.296;2023-05-20T19:44:37;100823.94;;;16.87;100.00
18813;BME280;9534;51.140;6.296;2023-05-20T19:48:42;100836.56;;;16.83;100.00
18813;BME280;9534;51.140;6.296;2023-05-20T19:52:46;100830.34;;;16.76;100.00
18813;BME280;9534;51.140;6.296;2023-05-20T19:56:52;100828.28;;;16.72;100.00
18813;BME280;9534;51.140;6.296;2023-05-20T20:00:55;100821.25;;;16.64;100.00
18813;BME280;9534;51.140;6.296;2023-05-20T20:04:58;100830.88;;;16.50;100.00
18813;BME280;9534;51.140;6.296;2023-05-20T20:09:04;100821.66;;;16.45;100.00
18813;BME280;9534;51.140;6.296;2023-05-20T20:13:08;100827.41;;;16.32;100.00
18813;BME280;9534;51.140;6.296;2023-05-20T20:17:11;100831.16;;;16.14;100.00
18813;BME280;9534;51.140;6.296;2023-05-20T20:21:16;100833.56;;;16.00;100.00
18813;BME280;9534;51.140;6.296;2023-05-20T20:25:20;100834.53;;;15.94;100.00
18813;BME280;9534;51.140;6.296;2023-05-20T20:29:26;100831.78;;;15.82;100.00
18813;BME280;9534;51.140;6.296;2023-05-20T20:33:29;100827.22;;;15.76;100.00
18813;BME280;9534;51.140;6.296;2023-05-20T20:37:33;100824.69;;;15.63;100.00
18813;BME280;9534;51.140;6.296;2023-05-20T20:41:38;100824.56;;;15.58;100.00
18813;BME280;9534;51.140;6.296;2023-05-20T20:45:47;100824.56;;;15.58;100.00
18813;BME280;9534;51.140;6.296;2023-05-20T20:49:51;100819.13;;;15.52;100.00
18813;BME280;9534;51.140;6.296;2023-05-20T20:53:54;100825.97;;;15.49;100.00
18813;BME280;9534;51.140;6.296;2023-05-20T20:57:57;100825.19;;;15.31;100.00
18813;BME280;9534;51.140;6.296;2023-05-20T21:02:05;100819.88;;;15.18;100.00
18813;BME280;9534;51.140;6.296;2023-05-20T21:06:08;100820.97;;;15.17;100.00
18813;BME280;9534;51.140;6.296;2023-05-20T21:10:13;100809.94;;;15.17;100.00
18813;BME280;9534;51.140;6.296;2023-05-20T21:14:17;100818.16;;;15.05;100.00
18813;BME280;9534;51.140;6.296;2023-05-20T21:18:21;100821.34;;;14.91;100.00